sensor_id;sensor_type;location;lat;lon;timestamp;temperature;humidity
52765;DHT22;38650;44.536;18.664;2024-02-21T00:02:09;10.20;99.90
52765;DHT22;38650;44.536;18.664;2024-02-21T00:04:34;9.60;99.90
52765;DHT22;38650;44.536;18.664;2024-02-21T00:07:01;9.40;99.90
52765;DHT22;38650;44.536;18.664;2024-02-21T00:09:27;9.50;99.90
52765;DHT22;38650;44.536;18.664;2024-02-21T00:11:53;9.60;99.90
52765;DHT22;38650;44.536;18.664;2024-02-21T00:14:18;9.70;99.90
52765;DHT22;38650;44.536;18.664;2024-02-21T00:16:44;9.70;99.90
52765;DHT22;38650;44.536;18.664;2024-02-21T00:19:10;9.60;99.90
52765;DHT22;38650;44.536;18.664;2024-02-21T00:21:35;9.60;99.90
52765;DHT22;38650;44.536;18.664;2024-02-21T00:24:01;9.70;99.90
52765;DHT22;38650;44.536;18.664;2024-02-21T00:26:27;9.80;99.90
52765;DHT22;38650;44.536;18.664;2024-02-21T00:28:53;9.80;99.90
52765;DHT22;38650;44.536;18.664;2024-02-21T00:31:18;9.80;99.90
52765;DHT22;38650;44.536;18.664;2024-02-21T00:33:44;9.90;99.90
52765;DHT22;38650;44.536;18.664;2024-02-21T00:36:10;9.90;99.90
52765;DHT22;38650;44.536;18.664;2024-02-21T00:38:35;9.90;99.90
52765;DHT22;38650;44.536;18.664;2024-02-21T00:41:01;9.80;99.90
52765;DHT22;38650;44.536;18.664;2024-02-21T00:43:26;9.80;99.90
52765;DHT22;38650;44.536;18.664;2024-02-21T00:45:52;9.70;99.90
52765;DHT22;38650;44.536;18.664;2024-02-21T00:48:18;9.70;99.90
52765;DHT22;38650;44.536;18.664;2024-02-21T00:50:44;9.80;99.90
52765;DHT22;38650;44.536;18.664;2024-02-21T00:53:10;9.90;99.90
52765;DHT22;38650;44.536;18.664;2024-02-21T00:55:35;9.90;99.90
52765;DHT22;38650;44.536;18.664;2024-02-21T00:58:01;9.90;99.90
52765;DHT22;38650;44.536;18.664;2024-02-21T01:00:27;9.80;99.90
52765;DHT22;38650;44.536;18.664;2024-02-21T01:02:52;9.90;99.90
52765;DHT22;38650;44.536;18.664;2024-02-21T01:05:18;10.00;99.90
52765;DHT22;38650;44.536;18.664;2024-02-21T01:07:45;9.90;99.90
52765;DHT22;38650;44.536;18.664;2024-02-21T01:10:11;9.80;99.90
52765;DHT22;38650;44.536;18.664;2024-02-21T01:12:37;9.70;99.90
52765;DHT22;38650;44.536;18.664;2024-02-21T01:15:03;9.70;99.90
52765;DHT22;38650;44.536;18.664;2024-02-21T01:17:30;9.80;99.90
52765;DHT22;38650;44.536;18.664;2024-02-21T01:19:55;9.90;99.90
52765;DHT22;38650;44.536;18.664;2024-02-21T01:22:21;9.70;99.90
52765;DHT22;38650;44.536;18.664;2024-02-21T01:24:46;9.70;99.90
52765;DHT22;38650;44.536;18.664;2024-02-21T01:27:12;9.60;99.90
52765;DHT22;38650;44.536;18.664;2024-02-21T01:29:38;9.50;99.90
52765;DHT22;38650;44.536;18.664;2024-02-21T01:32:04;9.40;99.90
52765;DHT22;38650;44.536;18.664;2024-02-21T01:34:29;9.50;99.90
52765;DHT22;38650;44.536;18.664;2024-02-21T01:36:55;9.60;99.90
52765;DHT22;38650;44.536;18.664;2024-02-21T01:39:21;9.60;99.90
52765;DHT22;38650;44.536;18.664;2024-02-21T01:41:47;9.70;99.90
52765;DHT22;38650;44.536;18.664;2024-02-21T01:44:13;9.60;99.90
52765;DHT22;38650;44.536;18.664;2024-02-21T01:46:39;9.60;99.90
52765;DHT22;38650;44.536;18.664;2024-02-21T01:49:05;9.60;99.90
52765;DHT22;38650;44.536;18.664;2024-02-21T01:51:31;9.70;99.90
52765;DHT22;38650;44.536;18.664;2024-02-21T01:53:58;9.80;99.90
52765;DHT22;38650;44.536;18.664;2024-02-21T01:56:24;9.90;99.90
52765;DHT22;38650;44.536;18.664;2024-02-21T01:58:51;9.90;99.90
52765;DHT22;38650;44.536;18.664;2024-02-21T02:01:17;9.70;99.90
52765;DHT22;38650;44.536;18.664;2024-02-21T02:03:44;9.60;99.90
52765;DHT22;38650;44.536;18.664;2024-02-21T02:06:10;9.60;99.90
52765;DHT22;38650;44.536;18.664;2024-02-21T02:08:36;9.60;99.90
52765;DHT22;38650;44.536;18.664;2024-02-21T02:11:02;9.70;99.90
52765;DHT22;38650;44.536;18.664;2024-02-21T02:13:28;9.80;99.90
52765;DHT22;38650;44.536;18.664;2024-02-21T02:15:54;9.90;99.90
52765;DHT22;38650;44.536;18.664;2024-02-21T02:18:20;9.70;99.90
52765;DHT22;38650;44.536;18.664;2024-02-21T02:20:46;9.70;99.90
52765;DHT22;38650;44.536;18.664;2024-02-21T02:23:21;9.60;99.90
52765;DHT22;38650;44.536;18.664;2024-02-21T02:25:48;9.50;99.90
52765;DHT22;38650;44.536;18.664;2024-02-21T02:28:15;9.50;99.90
52765;DHT22;38650;44.536;18.664;2024-02-21T02:30:41;9.50;99.90
52765;DHT22;38650;44.536;18.664;2024-02-21T02:33:07;9.50;99.90
52765;DHT22;38650;44.536;18.664;2024-02-21T02:35:33;9.50;99.90
52765;DHT22;38650;44.536;18.664;2024-02-21T02:38:00;9.60;99.90
52765;DHT22;38650;44.536;18.664;2024-02-21T02:40:26;9.60;99.90
52765;DHT22;38650;44.536;18.664;2024-02-21T02:42:52;9.60;99.90
52765;DHT22;38650;44.536;18.664;2024-02-21T02:45:21;9.60;99.90
52765;DHT22;38650;44.536;18.664;2024-02-21T02:47:47;9.60;99.90
52765;DHT22;38650;44.536;18.664;2024-02-21T02:50:13;9.70;99.90
52765;DHT22;38650;44.536;18.664;2024-02-21T02:52:39;9.70;99.90
52765;DHT22;38650;44.536;18.664;2024-02-21T02:55:06;9.60;99.90
52765;DHT22;38650;44.536;18.664;2024-02-21T02:57:32;9.50;99.90
52765;DHT22;38650;44.536;18.664;2024-02-21T02:59:58;9.40;99.90
52765;DHT22;38650;44.536;18.664;2024-02-21T03:02:23;9.30;99.90
52765;DHT22;38650;44.536;18.664;2024-02-21T03:04:49;9.20;99.90
52765;DHT22;38650;44.536;18.664;2024-02-21T03:07:15;9.10;99.90
52765;DHT22;38650;44.536;18.664;2024-02-21T03:09:42;9.00;99.90
52765;DHT22;38650;44.536;18.664;2024-02-21T03:12:08;9.00;99.90
52765;DHT22;38650;44.536;18.664;2024-02-21T03:14:34;9.00;99.90
52765;DHT22;38650;44.536;18.664;2024-02-21T03:17:01;9.10;99.90
52765;DHT22;38650;44.536;18.664;2024-02-21T03:19:27;9.20;99.90
52765;DHT22;38650;44.536;18.664;2024-02-21T03:21:53;9.40;99.90
52765;DHT22;38650;44.536;18.664;2024-02-21T03:24:20;9.60;99.90
52765;DHT22;38650;44.536;18.664;2024-02-21T03:26:46;9.70;99.90
52765;DHT22;38650;44.536;18.664;2024-02-21T03:29:14;9.80;99.90
52765;DHT22;38650;44.536;18.664;2024-02-21T03:31:40;9.80;99.90
52765;DHT22;38650;44.536;18.664;2024-02-21T03:34:05;9.90;99.90
52765;DHT22;38650;44.536;18.664;2024-02-21T03:36:31;9.80;99.90
52765;DHT22;38650;44.536;18.664;2024-02-21T03:38:57;9.90;99.90
52765;DHT22;38650;44.536;18.664;2024-02-21T03:41:23;9.90;99.90
52765;DHT22;38650;44.536;18.664;2024-02-21T03:43:48;9.90;99.90
52765;DHT22;38650;44.536;18.664;2024-02-21T03:46:15;10.00;99.90
52765;DHT22;38650;44.536;18.664;2024-02-21T03:48:40;10.00;99.90
52765;DHT22;38650;44.536;18.664;2024-02-21T03:51:06;10.00;99.90
52765;DHT22;38650;44.536;18.664;2024-02-21T03:53:32;10.00;99.90
52765;DHT22;38650;44.536;18.664;2024-02-21T03:56:01;9.90;99.90
52765;DHT22;38650;44.536;18.664;2024-02-21T03:58:32;9.90;99.90
52765;DHT22;38650;44.536;18.664;2024-02-21T04:01:00;9.80;99.90
52765;DHT22;38650;44.536;18.664;2024-02-21T04:03:27;9.70;99.90
52765;DHT22;38650;44.536;18.664;2024-02-21T04:05:52;9.60;99.90
52765;DHT22;38650;44.536;18.664;2024-02-21T04:08:18;9.50;99.90
52765;DHT22;38650;44.536;18.664;2024-02-21T04:10:44;9.40;99.90
52765;DHT22;38650;44.536;18.664;2024-02-21T04:13:10;9.30;99.90
52765;DHT22;38650;44.536;18.664;2024-02-21T04:15:35;9.30;99.90
52765;DHT22;38650;44.536;18.664;2024-02-21T04:18:02;9.20;99.90
52765;DHT22;38650;44.536;18.664;2024-02-21T04:20:30;9.30;99.90
52765;DHT22;38650;44.536;18.664;2024-02-21T04:22:56;9.40;99.90
52765;DHT22;38650;44.536;18.664;2024-02-21T04:25:22;9.40;99.90
52765;DHT22;38650;44.536;18.664;2024-02-21T04:27:48;9.50;99.90
52765;DHT22;38650;44.536;18.664;2024-02-21T04:30:14;9.60;99.90
52765;DHT22;38650;44.536;18.664;2024-02-21T04:32:40;9.60;99.90
52765;DHT22;38650;44.536;18.664;2024-02-21T04:35:06;9.60;99.90
52765;DHT22;38650;44.536;18.664;2024-02-21T04:37:32;9.60;99.90
52765;DHT22;38650;44.536;18.664;2024-02-21T04:39:58;9.60;99.90
52765;DHT22;38650;44.536;18.664;2024-02-21T04:42:24;9.70;99.90
52765;DHT22;38650;44.536;18.664;2024-02-21T04:44:49;9.70;99.90
52765;DHT22;38650;44.536;18.664;2024-02-21T04:47:15;9.70;99.90
52765;DHT22;38650;44.536;18.664;2024-02-21T04:49:41;9.80;99.90
52765;DHT22;38650;44.536;18.664;2024-02-21T04:52:07;9.80;99.90
52765;DHT22;38650;44.536;18.664;2024-02-21T04:54:32;9.80;99.90
52765;DHT22;38650;44.536;18.664;2024-02-21T04:57:00;9.80;99.90
52765;DHT22;38650;44.536;18.664;2024-02-21T04:59:26;9.80;99.90
52765;DHT22;38650;44.536;18.664;2024-02-21T05:01:52;9.80;99.90
52765;DHT22;38650;44.536;18.664;2024-02-21T05:04:17;9.70;99.90
52765;DHT22;38650;44.536;18.664;2024-02-21T05:06:43;9.70;99.90
52765;DHT22;38650;44.536;18.664;2024-02-21T05:09:09;9.60;99.90
52765;DHT22;38650;44.536;18.664;2024-02-21T05:11:36;9.70;99.90
52765;DHT22;38650;44.536;18.664;2024-02-21T05:14:02;9.60;99.90
52765;DHT22;38650;44.536;18.664;2024-02-21T05:16:29;9.60;99.90
52765;DHT22;38650;44.536;18.664;2024-02-21T05:18:54;9.70;99.90
52765;DHT22;38650;44.536;18.664;2024-02-21T05:21:22;9.70;99.90
52765;DHT22;38650;44.536;18.664;2024-02-21T05:23:49;9.60;99.90
52765;DHT22;38650;44.536;18.664;2024-02-21T05:26:25;9.60;99.90
52765;DHT22;38650;44.536;18.664;2024-02-21T05:28:51;9.70;99.90
52765;DHT22;38650;44.536;18.664;2024-02-21T05:31:20;9.70;99.90
52765;DHT22;38650;44.536;18.664;2024-02-21T05:33:47;9.70;99.90
52765;DHT22;38650;44.536;18.664;2024-02-21T05:36:13;9.70;99.90
52765;DHT22;38650;44.536;18.664;2024-02-21T05:38:39;9.70;99.90
52765;DHT22;38650;44.536;18.664;2024-02-21T05:41:05;9.60;99.90
52765;DHT22;38650;44.536;18.664;2024-02-21T05:43:30;9.50;99.90
52765;DHT22;38650;44.536;18.664;2024-02-21T05:45:57;9.60;99.90
52765;DHT22;38650;44.536;18.664;2024-02-21T05:48:23;9.60;99.90
52765;DHT22;38650;44.536;18.664;2024-02-21T05:50:49;9.70;99.90
52765;DHT22;38650;44.536;18.664;2024-02-21T05:53:14;9.70;99.90
52765;DHT22;38650;44.536;18.664;2024-02-21T05:55:40;9.80;99.90
52765;DHT22;38650;44.536;18.664;2024-02-21T05:58:06;9.80;99.90
52765;DHT22;38650;44.536;18.664;2024-02-21T06:00:33;9.80;99.90
52765;DHT22;38650;44.536;18.664;2024-02-21T06:02:59;9.90;99.90
52765;DHT22;38650;44.536;18.664;2024-02-21T06:05:24;9.80;99.90
52765;DHT22;38650;44.536;18.664;2024-02-21T06:07:50;9.80;99.90
52765;DHT22;38650;44.536;18.664;2024-02-21T06:10:16;9.80;99.90
52765;DHT22;38650;44.536;18.664;2024-02-21T06:12:42;9.90;99.90
52765;DHT22;38650;44.536;18.664;2024-02-21T06:15:08;9.80;99.90
52765;DHT22;38650;44.536;18.664;2024-02-21T06:17:34;9.80;99.90
52765;DHT22;38650;44.536;18.664;2024-02-21T06:19:59;9.80;99.90
52765;DHT22;38650;44.536;18.664;2024-02-21T06:22:25;9.80;99.90
52765;DHT22;38650;44.536;18.664;2024-02-21T06:24:51;9.80;99.90
52765;DHT22;38650;44.536;18.664;2024-02-21T06:27:16;9.70;99.90
52765;DHT22;38650;44.536;18.664;2024-02-21T06:29:42;9.70;99.90
52765;DHT22;38650;44.536;18.664;2024-02-21T06:32:08;9.60;99.90
52765;DHT22;38650;44.536;18.664;2024-02-21T06:34:34;9.50;99.90
52765;DHT22;38650;44.536;18.664;2024-02-21T06:37:00;9.60;99.90
52765;DHT22;38650;44.536;18.664;2024-02-21T06:39:25;9.70;99.90
52765;DHT22;38650;44.536;18.664;2024-02-21T06:41:51;9.80;99.90
52765;DHT22;38650;44.536;18.664;2024-02-21T06:44:19;9.80;99.90
52765;DHT22;38650;44.536;18.664;2024-02-21T06:46:44;9.80;99.90
52765;DHT22;38650;44.536;18.664;2024-02-21T06:49:10;9.90;99.90
52765;DHT22;38650;44.536;18.664;2024-02-21T06:51:44;9.90;99.90
52765;DHT22;38650;44.536;18.664;2024-02-21T06:54:10;9.90;99.90
52765;DHT22;38650;44.536;18.664;2024-02-21T06:56:36;9.90;99.90
52765;DHT22;38650;44.536;18.664;2024-02-21T06:59:03;9.90;99.90
52765;DHT22;38650;44.536;18.664;2024-02-21T07:01:32;10.00;99.90
52765;DHT22;38650;44.536;18.664;2024-02-21T07:03:57;10.00;99.90
52765;DHT22;38650;44.536;18.664;2024-02-21T07:06:23;10.00;99.90
52765;DHT22;38650;44.536;18.664;2024-02-21T07:08:49;10.00;99.90
52765;DHT22;38650;44.536;18.664;2024-02-21T07:11:14;10.00;99.90
52765;DHT22;38650;44.536;18.664;2024-02-21T07:13:40;10.00;99.90
52765;DHT22;38650;44.536;18.664;2024-02-21T07:16:06;10.10;99.90
52765;DHT22;38650;44.536;18.664;2024-02-21T07:18:32;10.00;99.90
52765;DHT22;38650;44.536;18.664;2024-02-21T07:20:58;10.10;99.90
52765;DHT22;38650;44.536;18.664;2024-02-21T07:23:24;10.10;99.90
52765;DHT22;38650;44.536;18.664;2024-02-21T07:25:50;10.10;99.90
52765;DHT22;38650;44.536;18.664;2024-02-21T07:28:16;10.00;99.90
52765;DHT22;38650;44.536;18.664;2024-02-21T07:30:42;10.00;99.90
52765;DHT22;38650;44.536;18.664;2024-02-21T07:33:09;10.10;99.90
52765;DHT22;38650;44.536;18.664;2024-02-21T07:35:35;10.20;99.90
52765;DHT22;38650;44.536;18.664;2024-02-21T07:38:06;10.20;99.90
52765;DHT22;38650;44.536;18.664;2024-02-21T07:40:32;10.20;99.90
52765;DHT22;38650;44.536;18.664;2024-02-21T07:42:58;10.30;99.90
52765;DHT22;38650;44.536;18.664;2024-02-21T07:45:24;10.30;99.90
52765;DHT22;38650;44.536;18.664;2024-02-21T07:47:50;10.20;99.90
52765;DHT22;38650;44.536;18.664;2024-02-21T07:50:16;10.30;99.90
52765;DHT22;38650;44.536;18.664;2024-02-21T07:53:00;10.30;99.90
52765;DHT22;38650;44.536;18.664;2024-02-21T07:55:25;10.40;99.90
52765;DHT22;38650;44.536;18.664;2024-02-21T07:57:51;10.50;99.90
52765;DHT22;38650;44.536;18.664;2024-02-21T08:00:17;10.60;99.90
52765;DHT22;38650;44.536;18.664;2024-02-21T08:02:48;10.70;99.90
52765;DHT22;38650;44.536;18.664;2024-02-21T08:05:14;10.70;99.90
52765;DHT22;38650;44.536;18.664;2024-02-21T08:07:40;10.70;99.90
52765;DHT22;38650;44.536;18.664;2024-02-21T08:10:06;10.70;99.90
52765;DHT22;38650;44.536;18.664;2024-02-21T08:12:33;10.80;99.90
52765;DHT22;38650;44.536;18.664;2024-02-21T08:14:59;10.80;99.90
52765;DHT22;38650;44.536;18.664;2024-02-21T08:17:25;10.90;99.90
52765;DHT22;38650;44.536;18.664;2024-02-21T08:19:51;11.20;99.90
52765;DHT22;38650;44.536;18.664;2024-02-21T08:22:17;11.60;99.90
52765;DHT22;38650;44.536;18.664;2024-02-21T08:24:42;12.80;95.70
52765;DHT22;38650;44.536;18.664;2024-02-21T08:27:08;12.80;93.90
52765;DHT22;38650;44.536;18.664;2024-02-21T08:29:34;12.60;95.50
52765;DHT22;38650;44.536;18.664;2024-02-21T08:31:59;12.50;96.80
52765;DHT22;38650;44.536;18.664;2024-02-21T08:34:25;12.60;97.70
52765;DHT22;38650;44.536;18.664;2024-02-21T08:36:51;12.70;96.40
52765;DHT22;38650;44.536;18.664;2024-02-21T08:39:17;12.90;93.80
52765;DHT22;38650;44.536;18.664;2024-02-21T08:41:43;13.00;94.60
52765;DHT22;38650;44.536;18.664;2024-02-21T08:44:09;13.00;92.40
52765;DHT22;38650;44.536;18.664;2024-02-21T08:46:34;13.20;91.50
52765;DHT22;38650;44.536;18.664;2024-02-21T08:49:01;13.30;91.10
52765;DHT22;38650;44.536;18.664;2024-02-21T08:51:28;13.40;87.70
52765;DHT22;38650;44.536;18.664;2024-02-21T08:53:54;13.40;87.00
52765;DHT22;38650;44.536;18.664;2024-02-21T08:56:20;13.30;89.60
52765;DHT22;38650;44.536;18.664;2024-02-21T08:58:46;14.10;82.00
52765;DHT22;38650;44.536;18.664;2024-02-21T09:01:12;14.60;80.50
52765;DHT22;38650;44.536;18.664;2024-02-21T09:03:38;14.80;73.80
52765;DHT22;38650;44.536;18.664;2024-02-21T09:06:05;14.80;74.10
52765;DHT22;38650;44.536;18.664;2024-02-21T09:08:32;14.70;72.10
52765;DHT22;38650;44.536;18.664;2024-02-21T09:10:57;14.40;70.20
52765;DHT22;38650;44.536;18.664;2024-02-21T09:13:23;14.10;73.30
52765;DHT22;38650;44.536;18.664;2024-02-21T09:15:49;14.00;73.30
52765;DHT22;38650;44.536;18.664;2024-02-21T09:18:16;14.00;75.70
52765;DHT22;38650;44.536;18.664;2024-02-21T09:20:44;14.10;74.60
52765;DHT22;38650;44.536;18.664;2024-02-21T09:23:10;14.10;77.80
52765;DHT22;38650;44.536;18.664;2024-02-21T09:25:36;14.00;75.50
52765;DHT22;38650;44.536;18.664;2024-02-21T09:28:03;14.20;81.10
52765;DHT22;38650;44.536;18.664;2024-02-21T09:30:29;14.70;65.40
52765;DHT22;38650;44.536;18.664;2024-02-21T09:32:55;14.90;67.30
52765;DHT22;38650;44.536;18.664;2024-02-21T09:35:35;15.00;62.50
52765;DHT22;38650;44.536;18.664;2024-02-21T09:38:01;15.10;64.50
52765;DHT22;38650;44.536;18.664;2024-02-21T09:40:52;15.30;64.70
52765;DHT22;38650;44.536;18.664;2024-02-21T09:43:19;15.90;60.70
52765;DHT22;38650;44.536;18.664;2024-02-21T09:45:48;15.90;56.90
52765;DHT22;38650;44.536;18.664;2024-02-21T09:51:10;15.80;53.10
52765;DHT22;38650;44.536;18.664;2024-02-21T09:53:40;15.70;51.30
52765;DHT22;38650;44.536;18.664;2024-02-21T09:56:11;15.80;52.60
52765;DHT22;38650;44.536;18.664;2024-02-21T09:58:47;15.80;52.40
52765;DHT22;38650;44.536;18.664;2024-02-21T10:01:13;15.30;51.00
52765;DHT22;38650;44.536;18.664;2024-02-21T10:03:39;15.10;53.50
52765;DHT22;38650;44.536;18.664;2024-02-21T10:06:05;15.20;52.50
52765;DHT22;38650;44.536;18.664;2024-02-21T10:08:31;15.10;52.90
52765;DHT22;38650;44.536;18.664;2024-02-21T10:10:56;15.10;54.20
52765;DHT22;38650;44.536;18.664;2024-02-21T10:13:28;15.10;52.60
52765;DHT22;38650;44.536;18.664;2024-02-21T10:18:27;15.70;53.30
52765;DHT22;38650;44.536;18.664;2024-02-21T10:21:02;16.00;51.10
52765;DHT22;38650;44.536;18.664;2024-02-21T10:23:27;16.10;51.50
52765;DHT22;38650;44.536;18.664;2024-02-21T10:25:53;16.10;52.40
52765;DHT22;38650;44.536;18.664;2024-02-21T10:28:22;16.20;51.30
52765;DHT22;38650;44.536;18.664;2024-02-21T10:30:50;16.30;49.90
52765;DHT22;38650;44.536;18.664;2024-02-21T10:33:17;16.50;52.50
52765;DHT22;38650;44.536;18.664;2024-02-21T10:35:47;16.60;50.30
52765;DHT22;38650;44.536;18.664;2024-02-21T10:38:13;16.60;48.00
52765;DHT22;38650;44.536;18.664;2024-02-21T10:43:49;16.40;48.80
52765;DHT22;38650;44.536;18.664;2024-02-21T10:46:24;16.30;51.30
52765;DHT22;38650;44.536;18.664;2024-02-21T10:49:16;16.10;50.70
52765;DHT22;38650;44.536;18.664;2024-02-21T10:51:46;16.30;52.60
52765;DHT22;38650;44.536;18.664;2024-02-21T10:57:26;16.90;46.20
52765;DHT22;38650;44.536;18.664;2024-02-21T10:59:55;16.90;47.40
52765;DHT22;38650;44.536;18.664;2024-02-21T11:02:24;17.00;47.90
52765;DHT22;38650;44.536;18.664;2024-02-21T11:04:57;17.20;48.70
52765;DHT22;38650;44.536;18.664;2024-02-21T11:07:27;17.50;48.90
52765;DHT22;38650;44.536;18.664;2024-02-21T11:10:32;17.90;47.80
52765;DHT22;38650;44.536;18.664;2024-02-21T11:13:08;18.10;46.10
52765;DHT22;38650;44.536;18.664;2024-02-21T11:15:36;18.00;44.70
52765;DHT22;38650;44.536;18.664;2024-02-21T11:18:13;18.10;44.30
52765;DHT22;38650;44.536;18.664;2024-02-21T11:20:51;18.00;45.10
52765;DHT22;38650;44.536;18.664;2024-02-21T11:23:27;18.10;45.10
52765;DHT22;38650;44.536;18.664;2024-02-21T11:26:03;18.30;44.10
52765;DHT22;38650;44.536;18.664;2024-02-21T11:28:29;17.90;42.10
52765;DHT22;38650;44.536;18.664;2024-02-21T11:31:22;17.90;44.10
52765;DHT22;38650;44.536;18.664;2024-02-21T11:33:48;18.40;43.50
52765;DHT22;38650;44.536;18.664;2024-02-21T11:36:26;18.60;41.40
52765;DHT22;38650;44.536;18.664;2024-02-21T11:38:53;18.40;42.00
52765;DHT22;38650;44.536;18.664;2024-02-21T11:41:19;18.50;41.80
52765;DHT22;38650;44.536;18.664;2024-02-21T11:43:48;18.60;39.70
52765;DHT22;38650;44.536;18.664;2024-02-21T11:46:14;19.10;38.20
52765;DHT22;38650;44.536;18.664;2024-02-21T11:48:41;19.60;37.40
52765;DHT22;38650;44.536;18.664;2024-02-21T11:51:09;19.90;37.50
52765;DHT22;38650;44.536;18.664;2024-02-21T11:53:35;20.20;37.60
52765;DHT22;38650;44.536;18.664;2024-02-21T11:56:01;19.80;37.50
52765;DHT22;38650;44.536;18.664;2024-02-21T11:58:26;19.20;37.30
52765;DHT22;38650;44.536;18.664;2024-02-21T12:00:52;19.00;37.70
52765;DHT22;38650;44.536;18.664;2024-02-21T12:03:18;19.10;36.80
52765;DHT22;38650;44.536;18.664;2024-02-21T12:05:46;19.20;36.40
52765;DHT22;38650;44.536;18.664;2024-02-21T12:08:13;19.20;36.00
52765;DHT22;38650;44.536;18.664;2024-02-21T12:10:47;19.50;37.40
52765;DHT22;38650;44.536;18.664;2024-02-21T12:13:16;20.00;35.90
52765;DHT22;38650;44.536;18.664;2024-02-21T12:15:47;20.00;34.90
52765;DHT22;38650;44.536;18.664;2024-02-21T12:18:14;19.60;33.90
52765;DHT22;38650;44.536;18.664;2024-02-21T12:20:40;19.30;34.10
52765;DHT22;38650;44.536;18.664;2024-02-21T12:23:10;19.10;35.00
52765;DHT22;38650;44.536;18.664;2024-02-21T12:25:36;19.20;35.20
52765;DHT22;38650;44.536;18.664;2024-02-21T12:28:01;18.90;34.80
52765;DHT22;38650;44.536;18.664;2024-02-21T12:30:29;18.80;34.70
52765;DHT22;38650;44.536;18.664;2024-02-21T12:32:56;18.50;35.20
52765;DHT22;38650;44.536;18.664;2024-02-21T12:35:23;18.10;36.10
52765;DHT22;38650;44.536;18.664;2024-02-21T12:37:49;17.70;37.30
52765;DHT22;38650;44.536;18.664;2024-02-21T12:40:15;17.70;37.20
52765;DHT22;38650;44.536;18.664;2024-02-21T12:42:40;17.60;37.70
52765;DHT22;38650;44.536;18.664;2024-02-21T12:45:07;17.60;38.10
52765;DHT22;38650;44.536;18.664;2024-02-21T12:47:33;17.50;39.10
52765;DHT22;38650;44.536;18.664;2024-02-21T12:49:58;17.40;39.70
52765;DHT22;38650;44.536;18.664;2024-02-21T12:52:24;17.20;39.90
52765;DHT22;38650;44.536;18.664;2024-02-21T12:54:50;16.90;40.90
52765;DHT22;38650;44.536;18.664;2024-02-21T12:57:17;16.70;40.50
52765;DHT22;38650;44.536;18.664;2024-02-21T12:59:42;16.60;40.90
52765;DHT22;38650;44.536;18.664;2024-02-21T13:02:08;16.60;40.60
52765;DHT22;38650;44.536;18.664;2024-02-21T13:04:34;16.60;39.50
52765;DHT22;38650;44.536;18.664;2024-02-21T13:07:00;16.60;39.10
52765;DHT22;38650;44.536;18.664;2024-02-21T13:09:25;16.50;40.00
52765;DHT22;38650;44.536;18.664;2024-02-21T13:11:51;16.40;40.10
52765;DHT22;38650;44.536;18.664;2024-02-21T13:14:17;16.50;40.60
52765;DHT22;38650;44.536;18.664;2024-02-21T13:16:42;16.60;41.40
52765;DHT22;38650;44.536;18.664;2024-02-21T13:19:08;16.50;41.00
52765;DHT22;38650;44.536;18.664;2024-02-21T13:21:34;16.30;40.90
52765;DHT22;38650;44.536;18.664;2024-02-21T13:24:01;16.40;41.40
52765;DHT22;38650;44.536;18.664;2024-02-21T13:26:26;16.40;41.00
52765;DHT22;38650;44.536;18.664;2024-02-21T13:28:53;16.50;39.10
52765;DHT22;38650;44.536;18.664;2024-02-21T13:31:19;16.60;40.30
52765;DHT22;38650;44.536;18.664;2024-02-21T13:33:44;16.70;39.90
52765;DHT22;38650;44.536;18.664;2024-02-21T13:36:10;16.60;40.90
52765;DHT22;38650;44.536;18.664;2024-02-21T13:38:36;16.70;41.30
52765;DHT22;38650;44.536;18.664;2024-02-21T13:41:04;16.90;40.30
52765;DHT22;38650;44.536;18.664;2024-02-21T13:43:30;17.00;40.40
52765;DHT22;38650;44.536;18.664;2024-02-21T13:46:00;16.90;40.40
52765;DHT22;38650;44.536;18.664;2024-02-21T13:48:30;16.80;40.70
52765;DHT22;38650;44.536;18.664;2024-02-21T13:50:56;16.80;40.70
52765;DHT22;38650;44.536;18.664;2024-02-21T13:53:22;16.70;39.90
52765;DHT22;38650;44.536;18.664;2024-02-21T13:55:49;16.60;39.70
52765;DHT22;38650;44.536;18.664;2024-02-21T13:58:16;16.60;39.90
52765;DHT22;38650;44.536;18.664;2024-02-21T14:00:41;16.40;39.50
52765;DHT22;38650;44.536;18.664;2024-02-21T14:03:07;16.20;40.50
52765;DHT22;38650;44.536;18.664;2024-02-21T14:05:33;16.00;40.70
52765;DHT22;38650;44.536;18.664;2024-02-21T14:07:59;16.00;41.60
52765;DHT22;38650;44.536;18.664;2024-02-21T14:10:24;16.10;40.80
52765;DHT22;38650;44.536;18.664;2024-02-21T14:12:50;16.10;41.70
52765;DHT22;38650;44.536;18.664;2024-02-21T14:15:16;16.20;41.40
52765;DHT22;38650;44.536;18.664;2024-02-21T14:17:42;16.20;40.70
52765;DHT22;38650;44.536;18.664;2024-02-21T14:20:08;16.20;41.30
52765;DHT22;38650;44.536;18.664;2024-02-21T14:22:34;16.20;42.30
52765;DHT22;38650;44.536;18.664;2024-02-21T14:25:03;16.20;41.40
52765;DHT22;38650;44.536;18.664;2024-02-21T14:27:31;16.10;42.40
52765;DHT22;38650;44.536;18.664;2024-02-21T14:29:56;16.10;41.60
52765;DHT22;38650;44.536;18.664;2024-02-21T14:32:22;16.20;42.50
52765;DHT22;38650;44.536;18.664;2024-02-21T14:34:48;16.20;41.70
52765;DHT22;38650;44.536;18.664;2024-02-21T14:37:14;16.20;42.00
52765;DHT22;38650;44.536;18.664;2024-02-21T14:39:41;16.30;42.40
52765;DHT22;38650;44.536;18.664;2024-02-21T14:42:07;16.30;41.00
52765;DHT22;38650;44.536;18.664;2024-02-21T14:44:35;16.50;42.00
52765;DHT22;38650;44.536;18.664;2024-02-21T14:47:01;16.90;40.60
52765;DHT22;38650;44.536;18.664;2024-02-21T14:49:26;17.10;40.50
52765;DHT22;38650;44.536;18.664;2024-02-21T14:51:54;17.50;39.40
52765;DHT22;38650;44.536;18.664;2024-02-21T14:54:20;17.90;39.80
52765;DHT22;38650;44.536;18.664;2024-02-21T14:56:46;18.10;37.60
52765;DHT22;38650;44.536;18.664;2024-02-21T14:59:12;18.20;38.50
52765;DHT22;38650;44.536;18.664;2024-02-21T15:01:38;18.30;37.00
52765;DHT22;38650;44.536;18.664;2024-02-21T15:04:04;18.20;37.00
52765;DHT22;38650;44.536;18.664;2024-02-21T15:06:30;18.10;36.50
52765;DHT22;38650;44.536;18.664;2024-02-21T15:08:57;18.10;37.20
52765;DHT22;38650;44.536;18.664;2024-02-21T15:11:24;18.10;37.20
52765;DHT22;38650;44.536;18.664;2024-02-21T15:13:49;18.10;37.60
52765;DHT22;38650;44.536;18.664;2024-02-21T15:16:15;18.20;37.20
52765;DHT22;38650;44.536;18.664;2024-02-21T15:18:42;18.20;37.10
52765;DHT22;38650;44.536;18.664;2024-02-21T15:21:07;18.30;36.90
52765;DHT22;38650;44.536;18.664;2024-02-21T15:23:38;18.40;36.40
52765;DHT22;38650;44.536;18.664;2024-02-21T15:26:04;18.30;36.30
52765;DHT22;38650;44.536;18.664;2024-02-21T15:28:30;18.30;36.10
52765;DHT22;38650;44.536;18.664;2024-02-21T15:30:56;18.10;36.00
52765;DHT22;38650;44.536;18.664;2024-02-21T15:33:22;18.00;36.40